createdAt,value
2019-06-01T00:00:50.080Z,1003.48
2019-06-01T00:01:50.114Z,1003.48
2019-06-01T00:03:03.291Z,1003.48
2019-06-01T00:03:50.175Z,1003.50
2019-06-01T00:04:50.212Z,1003.50
2019-06-01T00:05:50.243Z,1003.47
2019-06-01T00:06:50.274Z,1003.47
2019-06-01T00:07:50.306Z,1003.46
2019-06-01T00:08:50.338Z,1003.48
2019-06-01T00:13:50.501Z,1003.43
2019-06-01T00:14:50.532Z,1003.45
2019-06-01T00:15:50.565Z,1003.42
2019-06-01T00:16:50.597Z,1003.41
2019-06-01T00:17:50.646Z,1003.38
2019-06-01T00:18:50.667Z,1003.39
2019-06-01T00:21:54.344Z,1003.41
2019-06-01T00:25:52.840Z,1003.34
2019-06-01T00:26:52.100Z,1003.32
2019-06-01T00:27:52.817Z,1003.30
2019-06-01T00:29:51.017Z,1003.29
2019-06-01T00:30:52.062Z,1003.30
2019-06-01T00:31:52.131Z,1003.32
2019-06-01T00:32:51.413Z,1003.30
2019-06-01T00:33:51.727Z,1003.31
2019-06-01T00:34:51.876Z,1003.30
2019-06-01T00:35:51.613Z,1003.29
2019-06-01T00:36:51.938Z,1003.31
2019-06-01T00:37:51.776Z,1003.31
2019-06-01T00:38:52.066Z,1003.33
2019-06-01T00:40:52.128Z,1003.27
2019-06-01T00:48:25.737Z,1003.26
2019-06-01T00:50:27.319Z,1003.25
2019-06-01T00:57:26.937Z,1003.21
2019-06-01T00:58:26.391Z,1003.19
2019-06-01T01:00:42.519Z,1003.16
2019-06-01T01:02:28.235Z,1003.17
2019-06-01T01:03:26.446Z,1003.16
2019-06-01T01:04:26.479Z,1003.18
2019-06-01T01:05:26.310Z,1003.16
2019-06-01T01:08:27.209Z,1003.18
2019-06-01T01:12:28.428Z,1003.13
2019-06-01T01:16:28.274Z,1003.15
2019-06-01T01:21:27.728Z,1003.21
2019-06-01T01:22:27.252Z,1003.17
2019-06-01T01:23:27.287Z,1003.14
2019-06-01T01:24:27.315Z,1003.14
2019-06-01T01:29:28.159Z,1003.12
2019-06-01T01:34:27.944Z,1003.11
2019-06-01T01:46:34.388Z,1003.14
2019-06-01T01:48:27.984Z,1003.15
2019-06-01T01:50:28.248Z,1003.12
2019-06-01T01:51:28.078Z,1003.15
2019-06-01T01:53:27.835Z,1003.14
2019-06-01T01:55:27.901Z,1003.16
2019-06-01T01:56:27.935Z,1003.15
2019-06-01T01:57:27.937Z,1003.13
2019-06-01T02:04:29.593Z,1003.15
2019-06-01T02:05:28.191Z,1003.15
2019-06-01T02:06:29.260Z,1003.07
2019-06-01T02:07:28.254Z,1003.12
2019-06-01T02:08:28.286Z,1003.10
2019-06-01T02:09:28.320Z,1003.09
2019-06-01T02:10:28.349Z,1003.09
2019-06-01T02:11:28.386Z,1003.08
2019-06-01T02:12:28.414Z,1003.05
2019-06-01T02:13:30.369Z,1003.06
2019-06-01T02:15:29.244Z,1003.06
2019-06-01T02:20:29.604Z,1003.01
2019-06-01T02:21:29.033Z,1003.02
2019-06-01T02:24:28.797Z,1003.03
2019-06-01T02:26:29.693Z,1003.02
2019-06-01T02:28:29.655Z,1003.02
2019-06-01T02:29:28.979Z,1003.04
2019-06-01T02:30:32.650Z,1003.00
2019-06-01T02:32:29.280Z,1002.95
2019-06-01T02:33:29.102Z,1002.97
2019-06-01T02:34:29.140Z,1002.99
2019-06-01T02:35:29.772Z,1003.02
2019-06-01T02:39:29.297Z,1002.98
2019-06-01T02:40:29.351Z,1002.99
2019-06-01T02:42:24.529Z,1002.99
2019-06-01T02:43:21.937Z,1002.96
2019-06-01T02:44:21.967Z,1002.91
2019-06-01T02:45:21.999Z,1002.91
2019-06-01T02:46:22.030Z,1002.96
2019-06-01T02:47:22.061Z,1002.95
2019-06-01T02:48:22.093Z,1002.98
2019-06-01T02:49:25.556Z,1002.97
2019-06-01T02:50:22.154Z,1002.98
2019-06-01T02:51:22.186Z,1002.97
2019-06-01T02:52:22.219Z,1002.96
2019-06-01T02:53:22.261Z,1002.96
2019-06-01T02:54:22.282Z,1002.95
2019-06-01T02:55:22.314Z,1002.98
2019-06-01T02:56:22.346Z,1002.96
2019-06-01T02:57:22.377Z,1002.93
2019-06-01T02:58:22.411Z,1003.00
2019-06-01T02:59:22.440Z,1002.94
2019-06-01T03:00:22.470Z,1002.96
2019-06-01T03:01:22.505Z,1002.97
2019-06-01T03:02:22.536Z,1002.94
2019-06-01T03:03:22.564Z,1002.97
2019-06-01T03:04:22.922Z,1002.98
2019-06-01T03:05:22.628Z,1003.01
2019-06-01T03:06:22.661Z,1002.99
2019-06-01T03:07:22.690Z,1003.02
2019-06-01T03:08:22.723Z,1003.02
2019-06-01T03:09:22.753Z,1003.04
2019-06-01T03:10:22.807Z,1003.00
2019-06-01T03:11:22.838Z,1003.02
2019-06-01T03:12:23.076Z,1003.06
2019-06-01T03:13:22.904Z,1003.05
2019-06-01T03:14:22.931Z,1003.05
2019-06-01T03:15:23.164Z,1003.05
2019-06-01T03:17:23.005Z,1003.11
2019-06-01T03:18:23.035Z,1003.06
2019-06-01T03:19:23.066Z,1003.06
2019-06-01T03:20:23.099Z,1003.08
2019-06-01T03:21:23.130Z,1003.07
2019-06-01T03:22:23.160Z,1003.08
2019-06-01T03:23:23.191Z,1003.11
2019-06-01T03:24:23.222Z,1003.10
2019-06-01T03:25:23.256Z,1003.11
2019-06-01T03:26:23.310Z,1003.10
2019-06-01T03:27:23.318Z,1003.09
2019-06-01T03:28:23.349Z,1003.07
2019-06-01T03:29:23.382Z,1003.06
2019-06-01T03:30:23.412Z,1003.06
2019-06-01T03:31:23.466Z,1003.10
2019-06-01T03:32:35.014Z,1003.02
2019-06-01T03:33:23.526Z,1003.04
2019-06-01T03:34:23.536Z,1003.05
2019-06-01T03:35:23.567Z,1003.07
2019-06-01T03:36:23.599Z,1003.06
2019-06-01T03:37:23.857Z,1003.05
2019-06-01T03:38:23.661Z,1003.03
2019-06-01T03:40:24.178Z,1003.02
2019-06-01T03:41:23.758Z,1003.08
2019-06-01T03:42:23.787Z,1003.05
2019-06-01T03:43:24.020Z,1003.04
2019-06-01T03:44:23.850Z,1003.09
2019-06-01T03:46:23.912Z,1003.05
2019-06-01T03:47:23.944Z,1003.05
2019-06-01T03:48:23.976Z,1003.06
2019-06-01T03:49:24.007Z,1003.05
2019-06-01T03:50:24.037Z,1003.10
2019-06-01T03:51:24.070Z,1003.07
2019-06-01T03:52:24.110Z,1003.03
2019-06-01T03:53:24.140Z,1003.08
2019-06-01T03:54:24.163Z,1003.09
2019-06-01T03:55:24.194Z,1003.09
2019-06-01T03:56:24.227Z,1003.11
2019-06-01T03:57:24.259Z,1003.11
2019-06-01T03:58:24.288Z,1003.12
2019-06-01T03:59:24.320Z,1003.12
2019-06-01T04:00:24.353Z,1003.10
2019-06-01T04:01:24.383Z,1003.11
2019-06-01T04:02:32.900Z,1003.11
2019-06-01T04:03:24.446Z,1003.14
2019-06-01T04:05:24.508Z,1003.16
2019-06-01T04:06:24.538Z,1003.12
2019-06-01T04:08:24.806Z,1003.15
2019-06-01T04:09:24.637Z,1003.06
2019-06-01T04:10:24.665Z,1003.12
2019-06-01T04:11:24.698Z,1003.08
2019-06-01T04:12:24.730Z,1003.08
2019-06-01T04:13:24.763Z,1003.12
2019-06-01T04:14:24.791Z,1003.14
2019-06-01T04:15:24.823Z,1003.14
2019-06-01T04:16:24.861Z,1003.10
2019-06-01T04:17:24.887Z,1003.15
2019-06-01T04:18:24.915Z,1003.14
2019-06-01T04:19:24.954Z,1003.12
2019-06-01T04:20:24.980Z,1003.16
2019-06-01T04:21:25.015Z,1003.15
2019-06-01T04:22:25.052Z,1003.16
2019-06-01T04:23:25.076Z,1003.15
2019-06-01T04:24:25.107Z,1003.17
2019-06-01T04:25:25.138Z,1003.16
2019-06-01T04:26:25.168Z,1003.15
2019-06-01T04:27:25.202Z,1003.14
2019-06-01T04:28:25.232Z,1003.13
2019-06-01T04:29:25.265Z,1003.11
2019-06-01T04:30:25.295Z,1003.11
2019-06-01T04:31:25.327Z,1003.11
2019-06-01T04:32:25.359Z,1003.14
2019-06-01T04:33:25.395Z,1003.12
2019-06-01T04:34:25.444Z,1003.13
2019-06-01T04:35:25.453Z,1003.09
2019-06-01T04:36:25.485Z,1003.12
2019-06-01T04:37:25.521Z,1003.10
2019-06-01T04:38:25.550Z,1003.11
2019-06-01T04:39:25.583Z,1003.12
2019-06-01T04:40:28.919Z,1003.11
2019-06-01T04:41:25.645Z,1003.09
2019-06-01T04:42:25.680Z,1003.12
2019-06-01T04:43:25.710Z,1003.10
2019-06-01T04:44:25.738Z,1003.09
2019-06-01T04:45:25.771Z,1003.14
2019-06-01T04:46:25.810Z,1003.11
2019-06-01T04:47:25.839Z,1003.15
2019-06-01T04:48:25.866Z,1003.13
2019-06-01T04:49:25.899Z,1003.13
2019-06-01T04:50:25.930Z,1003.13
2019-06-01T04:51:25.962Z,1003.17
2019-06-01T04:52:25.994Z,1003.21
2019-06-01T04:53:26.026Z,1003.18
2019-06-01T04:54:26.057Z,1003.16
2019-06-01T04:55:26.090Z,1003.17
2019-06-01T04:56:26.123Z,1003.18
2019-06-01T04:57:26.153Z,1003.15
2019-06-01T04:58:26.188Z,1003.16
2019-06-01T04:59:26.216Z,1003.16
2019-06-01T05:00:28.077Z,1003.19
2019-06-01T05:01:26.484Z,1003.19
2019-06-01T05:02:26.312Z,1003.19
2019-06-01T05:03:26.349Z,1003.21
2019-06-01T05:04:26.377Z,1003.22
2019-06-01T05:05:26.410Z,1003.23
2019-06-01T05:06:26.441Z,1003.20
2019-06-01T05:07:26.474Z,1003.22
2019-06-01T05:08:26.506Z,1003.25
2019-06-01T05:09:26.540Z,1003.26
2019-06-01T05:10:26.571Z,1003.26
2019-06-01T05:11:26.603Z,1003.28
2019-06-01T05:12:26.661Z,1003.25
2019-06-01T05:13:26.692Z,1003.27
2019-06-01T05:14:26.923Z,1003.28
2019-06-01T05:16:26.789Z,1003.27
2019-06-01T05:18:26.853Z,1003.27
2019-06-01T05:20:26.894Z,1003.24
2019-06-01T05:21:26.926Z,1003.24
2019-06-01T05:22:26.961Z,1003.23
2019-06-01T05:23:26.990Z,1003.27
2019-06-01T05:24:27.049Z,1003.25
2019-06-01T05:25:27.057Z,1003.29
2019-06-01T05:26:27.089Z,1003.28
2019-06-01T05:27:27.143Z,1003.29
2019-06-01T05:28:27.176Z,1003.26
2019-06-01T05:29:27.212Z,1003.32
2019-06-01T05:31:27.473Z,1003.28
2019-06-01T05:33:37.037Z,1003.31
2019-06-01T05:37:27.478Z,1003.29
2019-06-01T05:38:27.501Z,1003.26
2019-06-01T05:40:27.548Z,1003.33
2019-06-01T05:41:27.608Z,1003.30
2019-06-01T05:42:27.632Z,1003.28
2019-06-01T05:43:27.667Z,1003.29
2019-06-01T05:44:27.679Z,1003.29
2019-06-01T05:45:27.716Z,1003.31
2019-06-01T05:47:27.801Z,1003.33
2019-06-01T05:48:30.611Z,1003.25
2019-06-01T05:49:27.845Z,1003.28
2019-06-01T05:50:27.876Z,1003.27
2019-06-01T05:51:27.913Z,1003.27
2019-06-01T05:52:27.948Z,1003.24
2019-06-01T05:53:27.977Z,1003.21
2019-06-01T05:54:28.010Z,1003.23
2019-06-01T05:55:28.046Z,1003.25
2019-06-01T05:56:28.077Z,1003.20
2019-06-01T05:57:28.110Z,1003.24
2019-06-01T05:58:29.409Z,1003.21
2019-06-01T05:59:28.176Z,1003.21
2019-06-01T06:00:28.211Z,1003.22
2019-06-01T06:01:28.245Z,1003.17
2019-06-01T06:02:28.279Z,1003.15
2019-06-01T06:03:39.943Z,1003.14
2019-06-01T06:04:29.761Z,1003.18
2019-06-01T06:05:28.402Z,1003.19
2019-06-01T06:06:29.046Z,1003.15
2019-06-01T06:07:28.445Z,1003.16
2019-06-01T06:08:28.494Z,1003.19
2019-06-01T06:09:28.518Z,1003.18
2019-06-01T06:10:28.569Z,1003.21
2019-06-01T06:11:28.805Z,1003.20
2019-06-01T06:12:28.618Z,1003.21
2019-06-01T06:13:28.649Z,1003.23
2019-06-01T06:14:28.682Z,1003.23
2019-06-01T06:15:28.718Z,1003.27
2019-06-01T06:16:28.751Z,1003.27
2019-06-01T06:17:28.785Z,1003.29
2019-06-01T06:18:28.818Z,1003.29
2019-06-01T06:19:28.851Z,1003.33
2019-06-01T06:20:28.887Z,1003.31
2019-06-01T06:21:28.922Z,1003.33
2019-06-01T06:22:28.959Z,1003.37
2019-06-01T06:23:28.989Z,1003.34
2019-06-01T06:24:29.027Z,1003.33
2019-06-01T06:25:31.051Z,1003.29
2019-06-01T06:26:29.095Z,1003.32
2019-06-01T06:27:29.126Z,1003.31
2019-06-01T06:28:29.166Z,1003.28
2019-06-01T06:29:29.194Z,1003.29
2019-06-01T06:30:29.232Z,1003.30
2019-06-01T06:31:29.268Z,1003.24
2019-06-01T06:32:29.302Z,1003.24
2019-06-01T06:33:29.333Z,1003.24
2019-06-01T06:34:29.366Z,1003.24
2019-06-01T06:35:29.400Z,1003.25
2019-06-01T06:37:29.476Z,1003.22
2019-06-01T06:38:29.504Z,1003.24
2019-06-01T06:39:29.539Z,1003.19
2019-06-01T06:40:29.573Z,1003.22
2019-06-01T06:41:29.610Z,1003.24
2019-06-01T06:42:29.642Z,1003.27
2019-06-01T06:43:33.044Z,1003.24
2019-06-01T06:44:29.712Z,1003.21
2019-06-01T06:45:29.748Z,1003.23
2019-06-01T06:46:29.782Z,1003.20
2019-06-01T06:47:29.818Z,1003.20
2019-06-01T06:48:29.861Z,1003.21
2019-06-01T06:49:29.896Z,1003.20
2019-06-01T06:50:29.921Z,1003.20
2019-06-01T06:51:29.956Z,1003.19
2019-06-01T06:52:30.002Z,1003.17
2019-06-01T06:53:34.956Z,1003.16
2019-06-01T06:54:30.064Z,1003.16
2019-06-01T06:55:30.148Z,1003.20
2019-06-01T06:56:30.137Z,1003.18
2019-06-01T06:57:30.176Z,1003.18
2019-06-01T06:58:30.203Z,1003.18
2019-06-01T06:59:30.240Z,1003.17
2019-06-01T07:00:30.377Z,1003.18
2019-06-01T07:01:30.309Z,1003.19
2019-06-01T07:02:30.351Z,1003.17
2019-06-01T07:03:30.389Z,1003.20
2019-06-01T07:04:30.415Z,1003.19
2019-06-01T07:05:31.456Z,1003.20
2019-06-01T07:06:30.487Z,1003.19
2019-06-01T07:07:30.522Z,1003.17
2019-06-01T07:08:30.559Z,1003.10
2019-06-01T07:09:30.607Z,1003.14
2019-06-01T07:10:30.640Z,1003.09
2019-06-01T07:11:31.516Z,1003.09
2019-06-01T07:12:31.563Z,1003.07
2019-06-01T07:13:31.612Z,1003.06
2019-06-01T07:14:31.677Z,1003.06
2019-06-01T07:15:31.767Z,1003.09
2019-06-01T07:16:31.880Z,1003.10
2019-06-01T07:17:31.871Z,1003.10
2019-06-01T07:18:31.908Z,1003.08
2019-06-01T07:19:31.908Z,1003.13
2019-06-01T07:20:31.966Z,1003.11
2019-06-01T07:21:31.975Z,1003.14
2019-06-01T07:22:32.013Z,1003.12
2019-06-01T07:23:32.113Z,1003.14
2019-06-01T07:24:32.092Z,1003.15
2019-06-01T07:25:31.180Z,1003.09
2019-06-01T07:26:32.297Z,1003.09
2019-06-01T07:27:32.347Z,1003.13
2019-06-01T07:28:32.374Z,1003.17
2019-06-01T07:29:32.387Z,1003.19
2019-06-01T07:30:32.538Z,1003.23
2019-06-01T07:31:32.447Z,1003.19
2019-06-01T07:32:32.754Z,1003.23
2019-06-01T07:33:32.651Z,1003.27
2019-06-01T07:34:41.189Z,1003.25
2019-06-01T07:35:32.540Z,1003.24
2019-06-01T07:36:32.766Z,1003.23
2019-06-01T07:37:32.643Z,1003.23
2019-06-01T07:38:33.162Z,1003.22
2019-06-01T07:39:33.363Z,1003.24
2019-06-01T07:40:32.913Z,1003.20
2019-06-01T07:41:32.998Z,1003.20
2019-06-01T07:42:32.989Z,1003.20
2019-06-01T07:43:33.074Z,1003.20
2019-06-01T07:44:33.139Z,1003.19
2019-06-01T07:45:34.929Z,1003.23
2019-06-01T07:46:33.175Z,1003.18
2019-06-01T07:47:33.852Z,1003.20
2019-06-01T07:48:33.315Z,1003.18
2019-06-01T07:49:32.049Z,1003.14
2019-06-01T07:50:32.258Z,1003.12
2019-06-01T07:51:32.214Z,1003.11
2019-06-01T07:52:32.466Z,1003.13
2019-06-01T07:53:32.185Z,1003.10
2019-06-01T07:54:32.718Z,1003.09
2019-06-01T07:55:32.260Z,1003.10
2019-06-01T07:56:32.820Z,1003.07
2019-06-01T07:57:32.332Z,1003.05
2019-06-01T07:58:32.923Z,1003.04
2019-06-01T07:59:32.641Z,1003.07
2019-06-01T08:00:33.192Z,1003.04
2019-06-01T08:01:32.907Z,1003.02
2019-06-01T08:02:33.097Z,1002.99
2019-06-01T08:03:34.824Z,1002.99
2019-06-01T08:04:51.862Z,1003.03
2019-06-01T08:05:32.649Z,1002.98
2019-06-01T08:06:33.704Z,1002.95
2019-06-01T08:10:32.833Z,1002.91
2019-06-01T08:12:32.915Z,1002.87
2019-06-01T08:13:35.615Z,1002.91
2019-06-01T08:14:32.981Z,1002.91
2019-06-01T08:16:33.058Z,1002.87
2019-06-01T08:17:33.097Z,1002.87
2019-06-01T08:19:33.373Z,1002.97
2019-06-01T08:20:33.208Z,1002.92
2019-06-01T08:22:33.283Z,1002.93
2019-06-01T08:23:33.323Z,1002.86
2019-06-01T08:28:33.708Z,1002.88
2019-06-01T08:29:34.356Z,1002.86
2019-06-01T08:32:33.661Z,1002.83
2019-06-01T08:33:35.052Z,1002.88
2019-06-01T08:34:33.935Z,1002.84
2019-06-01T08:35:35.193Z,1002.80
2019-06-01T08:36:34.070Z,1002.81
2019-06-01T08:37:33.850Z,1002.80
2019-06-01T08:38:34.089Z,1002.80
2019-06-01T08:39:34.278Z,1002.79
2019-06-01T08:40:33.966Z,1002.79
2019-06-01T08:41:35.724Z,1002.76
2019-06-01T08:42:34.036Z,1002.77
2019-06-01T08:43:34.077Z,1002.74
2019-06-01T08:44:34.097Z,1002.70
2019-06-01T08:45:37.267Z,1002.71
2019-06-01T08:46:34.195Z,1002.64
2019-06-01T08:47:34.240Z,1002.65
2019-06-01T08:49:34.609Z,1002.66
2019-06-01T08:50:34.323Z,1002.68
2019-06-01T08:51:34.366Z,1002.69
2019-06-01T08:52:34.605Z,1002.64
2019-06-01T08:53:34.439Z,1002.68
2019-06-01T08:54:34.496Z,1002.65
2019-06-01T08:55:34.741Z,1002.65
2019-06-01T08:57:35.226Z,1002.67
2019-06-01T08:58:34.745Z,1002.64
2019-06-01T08:59:34.722Z,1002.61
2019-06-01T09:00:34.815Z,1002.66
2019-06-01T09:01:35.039Z,1002.69
2019-06-01T09:02:35.018Z,1002.64
2019-06-01T09:03:39.232Z,1002.64
2019-06-01T09:04:35.799Z,1002.62
2019-06-01T09:05:35.229Z,1002.61
2019-06-01T09:06:36.489Z,1002.66
2019-06-01T09:08:35.822Z,1002.62
2019-06-01T09:09:35.281Z,1002.62
2019-06-01T09:10:35.620Z,1002.63
2019-06-01T09:13:35.555Z,1002.58
2019-06-01T09:14:35.628Z,1002.58
2019-06-01T09:15:35.724Z,1002.55
2019-06-01T09:16:36.045Z,1002.50
2019-06-01T09:17:35.593Z,1002.55
2019-06-01T09:20:38.828Z,1002.52
2019-06-01T09:21:35.726Z,1002.54
2019-06-01T09:22:35.818Z,1002.54
2019-06-01T09:23:37.044Z,1002.52
2019-06-01T09:24:36.210Z,1002.50
2019-06-01T09:25:35.963Z,1002.49
2019-06-01T09:26:36.087Z,1002.51
2019-06-01T09:27:36.145Z,1002.47
2019-06-01T09:28:36.300Z,1002.53
2019-06-01T09:30:18.399Z,1002.52
2019-06-01T09:31:18.439Z,1002.58
2019-06-01T09:32:18.481Z,1002.56
2019-06-01T09:33:18.576Z,1002.56
2019-06-01T09:34:18.588Z,1002.59
2019-06-01T09:35:18.598Z,1002.60
2019-06-01T09:36:18.638Z,1002.61
2019-06-01T09:37:18.679Z,1002.59
2019-06-01T09:38:18.873Z,1002.56
2019-06-01T09:39:18.757Z,1002.44
2019-06-01T09:40:18.813Z,1002.51
2019-06-01T09:41:18.870Z,1002.55
2019-06-01T09:42:18.884Z,1002.50
2019-06-01T09:43:18.919Z,1002.49
2019-06-01T09:44:18.956Z,1002.52
2019-06-01T09:45:19.002Z,1002.53
2019-06-01T09:46:19.037Z,1002.46
2019-06-01T09:47:19.078Z,1002.52
2019-06-01T09:48:19.123Z,1002.43
2019-06-01T09:49:19.162Z,1002.47
2019-06-01T09:50:19.197Z,1002.43
2019-06-01T09:51:19.239Z,1002.43
2019-06-01T09:52:19.279Z,1002.41
2019-06-01T09:53:19.318Z,1002.43
2019-06-01T09:54:19.387Z,1002.41
2019-06-01T09:55:19.420Z,1002.43
2019-06-01T09:56:19.441Z,1002.42
2019-06-01T09:57:19.480Z,1002.47
2019-06-01T09:58:19.561Z,1002.38
2019-06-01T09:59:19.561Z,1002.39
2019-06-01T10:00:19.601Z,1002.42
2019-06-01T10:01:19.641Z,1002.40
2019-06-01T10:02:19.682Z,1002.36
2019-06-01T10:03:19.724Z,1002.37
2019-06-01T10:04:19.764Z,1002.37
2019-06-01T10:05:19.803Z,1002.36
2019-06-01T10:06:19.842Z,1002.28
2019-06-01T10:07:19.886Z,1002.30
2019-06-01T10:08:19.931Z,1002.32
2019-06-01T10:09:20.002Z,1002.29
2019-06-01T10:10:20.006Z,1002.32
2019-06-01T10:11:20.049Z,1002.31
2019-06-01T10:12:20.293Z,1002.32
2019-06-01T10:13:20.150Z,1002.32
2019-06-01T10:14:20.168Z,1002.31
2019-06-01T10:15:20.208Z,1002.31
2019-06-01T10:16:20.255Z,1002.28
2019-06-01T10:17:20.293Z,1002.30
2019-06-01T10:18:20.352Z,1002.26
2019-06-01T10:19:20.396Z,1002.26
2019-06-01T10:20:20.413Z,1002.28
2019-06-01T10:22:20.493Z,1002.28
2019-06-01T10:23:20.740Z,1002.28
2019-06-01T10:24:20.575Z,1002.26
2019-06-01T10:25:20.637Z,1002.21
2019-06-01T10:26:20.678Z,1002.20
2019-06-01T10:27:20.700Z,1002.26
2019-06-01T10:28:20.762Z,1002.22
2019-06-01T10:29:20.802Z,1002.18
2019-06-01T10:30:20.825Z,1002.22
2019-06-01T10:31:20.862Z,1002.21
2019-06-01T10:32:20.934Z,1002.18
2019-06-01T10:33:20.966Z,1002.20
2019-06-01T10:34:20.981Z,1002.17
2019-06-01T10:35:24.657Z,1002.17
2019-06-01T10:36:21.677Z,1002.16
2019-06-01T10:37:21.108Z,1002.24
2019-06-01T10:38:24.087Z,1002.27
2019-06-01T10:41:18.830Z,1002.34
2019-06-01T10:42:18.921Z,1002.24
2019-06-01T10:43:22.555Z,1002.29
2019-06-01T10:44:18.960Z,1002.32
2019-06-01T10:45:19.814Z,1002.33
2019-06-01T10:46:21.674Z,1002.37
2019-06-01T10:47:19.097Z,1002.40
2019-06-01T10:48:19.147Z,1002.48
2019-06-01T10:49:19.189Z,1002.56
2019-06-01T10:50:19.234Z,1002.65
2019-06-01T10:51:19.889Z,1002.69
2019-06-01T10:52:19.328Z,1002.74
2019-06-01T10:53:19.380Z,1002.72
2019-06-01T10:54:19.426Z,1002.80
2019-06-01T10:55:19.472Z,1002.71
2019-06-01T10:57:19.576Z,1002.82
2019-06-01T10:59:20.919Z,1002.81
2019-06-01T11:00:37.090Z,1002.78
2019-06-01T11:01:19.767Z,1002.77
2019-06-01T11:02:19.814Z,1002.81
2019-06-01T11:03:19.871Z,1002.72
2019-06-01T11:04:19.915Z,1002.74
2019-06-01T11:05:19.972Z,1002.76
2019-06-01T11:06:36.326Z,1002.77
2019-06-01T11:07:20.067Z,1002.74
2019-06-01T11:08:20.117Z,1002.79
2019-06-01T11:09:20.169Z,1002.77
2019-06-01T11:10:20.220Z,1002.78
2019-06-01T11:11:20.575Z,1002.73
2019-06-01T11:12:20.378Z,1002.75
2019-06-01T11:14:20.429Z,1002.81
2019-06-01T11:15:20.500Z,1002.74
2019-06-01T11:16:20.525Z,1002.76
2019-06-01T11:17:20.579Z,1002.79
2019-06-01T11:18:20.630Z,1002.79
2019-06-01T11:19:20.683Z,1002.79
2019-06-01T11:20:20.733Z,1002.79
2019-06-01T11:21:20.784Z,1002.73
2019-06-01T11:22:20.836Z,1002.68
2019-06-01T11:23:21.217Z,1002.62
2019-06-01T11:24:20.940Z,1002.64
2019-06-01T11:25:20.993Z,1002.68
2019-06-01T11:26:23.100Z,1002.65
2019-06-01T11:27:21.095Z,1002.72
2019-06-01T11:28:21.148Z,1002.78
2019-06-01T11:29:21.202Z,1002.67
2019-06-01T11:30:21.253Z,1002.72
2019-06-01T11:31:21.528Z,1002.71
2019-06-01T11:32:21.358Z,1002.74
2019-06-01T11:33:21.420Z,1002.80
2019-06-01T11:34:21.463Z,1002.73
2019-06-01T11:35:21.516Z,1002.69
2019-06-01T11:36:21.568Z,1002.71
2019-06-01T11:37:21.621Z,1002.75
2019-06-01T11:38:21.672Z,1002.68
2019-06-01T11:39:21.725Z,1002.70
2019-06-01T11:40:21.779Z,1002.72
2019-06-01T11:41:21.831Z,1002.73
2019-06-01T11:42:21.883Z,1002.69
2019-06-01T11:43:21.934Z,1002.72
2019-06-01T11:44:21.990Z,1002.75
2019-06-01T11:45:22.040Z,1002.65
2019-06-01T11:46:22.095Z,1002.69
2019-06-01T11:47:22.147Z,1002.66
2019-06-01T11:48:22.198Z,1002.65
2019-06-01T11:49:22.297Z,1002.68
2019-06-01T11:50:22.305Z,1002.65
2019-06-01T11:52:22.434Z,1002.71
2019-06-01T11:54:23.326Z,1002.69
2019-06-01T11:55:22.873Z,1002.66
2019-06-01T12:07:19.354Z,1002.47
2019-06-01T12:08:16.784Z,1002.48
2019-06-01T12:09:17.441Z,1002.52
2019-06-01T12:10:17.496Z,1002.49
2019-06-01T12:11:20.169Z,1002.49
2019-06-01T12:13:19.868Z,1002.49
2019-06-01T12:14:17.724Z,1002.50
2019-06-01T12:15:17.171Z,1002.57
2019-06-01T12:16:17.228Z,1002.50
2019-06-01T12:17:17.253Z,1002.57
2019-06-01T12:18:17.306Z,1002.52
2019-06-01T12:19:17.360Z,1002.42
2019-06-01T12:20:17.421Z,1002.44
2019-06-01T12:21:17.688Z,1002.45
2019-06-01T12:22:17.516Z,1002.44
2019-06-01T12:23:17.593Z,1002.45
2019-06-01T12:24:17.644Z,1002.40
2019-06-01T12:25:17.674Z,1002.38
2019-06-01T12:26:17.728Z,1002.39
2019-06-01T12:27:17.780Z,1002.37
2019-06-01T12:28:17.841Z,1002.35
2019-06-01T12:29:17.937Z,1002.31
2019-06-01T12:30:18.005Z,1002.32
2019-06-01T12:32:18.074Z,1002.29
2019-06-01T12:33:18.097Z,1002.33
2019-06-01T12:34:18.150Z,1002.31
2019-06-01T12:35:18.205Z,1002.28
2019-06-01T12:36:18.257Z,1002.29
2019-06-01T12:37:36.027Z,1002.27
2019-06-01T12:41:54.555Z,1002.24
2019-06-01T12:42:52.096Z,1002.26
2019-06-01T12:43:52.040Z,1002.32
2019-06-01T12:44:52.177Z,1002.21
2019-06-01T12:46:05.435Z,1002.22
2019-06-01T12:46:53.040Z,1002.22
2019-06-01T12:47:58.108Z,1002.20
2019-06-01T12:48:52.607Z,1002.24
2019-06-01T12:49:52.764Z,1002.25
2019-06-01T12:50:52.631Z,1002.20
2019-06-01T12:51:53.056Z,1002.19
2019-06-01T12:52:52.796Z,1002.17
2019-06-01T12:53:52.843Z,1002.19
2019-06-01T12:54:53.141Z,1002.20
2019-06-01T12:56:53.164Z,1002.20
2019-06-01T12:57:52.790Z,1002.15
2019-06-01T13:03:03.797Z,1002.20
2019-06-01T13:03:53.319Z,1002.17
2019-06-01T13:08:53.694Z,1002.12
2019-06-01T13:12:54.001Z,1002.08
2019-06-01T13:13:56.280Z,1002.06
2019-06-01T13:21:03.476Z,1002.04
2019-06-01T13:22:02.897Z,1002.03
2019-06-01T13:41:29.743Z,1001.86
2019-06-01T13:44:29.907Z,1001.77
2019-06-01T13:50:30.253Z,1001.64
2019-06-01T13:51:30.913Z,1001.65
2019-06-01T13:52:30.773Z,1001.68
2019-06-01T13:54:30.475Z,1001.66
2019-06-01T13:56:34.624Z,1001.68
2019-06-01T13:59:31.144Z,1001.55
2019-06-01T14:02:30.879Z,1001.61
2019-06-01T14:03:30.935Z,1001.60
2019-06-01T14:04:30.986Z,1001.60
2019-06-01T14:05:31.042Z,1001.59
2019-06-01T14:06:31.096Z,1001.55
2019-06-01T14:07:31.163Z,1001.51
2019-06-01T14:08:31.201Z,1001.51
2019-06-01T14:09:31.261Z,1001.52
2019-06-01T14:10:31.312Z,1001.52
2019-06-01T14:11:31.365Z,1001.49
2019-06-01T14:12:31.419Z,1001.46
2019-06-01T14:13:31.472Z,1001.44
2019-06-01T14:14:31.534Z,1001.43
2019-06-01T14:15:31.580Z,1001.42
2019-06-01T14:16:31.635Z,1001.37
2019-06-01T14:17:31.696Z,1001.43
2019-06-01T14:18:31.742Z,1001.37
2019-06-01T14:19:31.802Z,1001.37
2019-06-01T14:20:31.851Z,1001.35
2019-06-01T14:21:31.903Z,1001.36
2019-06-01T14:22:31.967Z,1001.41
2019-06-01T14:23:32.012Z,1001.38
2019-06-01T14:24:32.064Z,1001.42
2019-06-01T14:25:32.118Z,1001.34
2019-06-01T14:26:32.175Z,1001.32
2019-06-01T14:27:32.226Z,1001.27
2019-06-01T14:28:32.283Z,1001.29
2019-06-01T14:29:32.331Z,1001.25
2019-06-01T14:30:32.385Z,1001.23
2019-06-01T14:31:32.440Z,1001.22
2019-06-01T14:32:32.491Z,1001.20
2019-06-01T14:33:32.546Z,1001.18
2019-06-01T14:34:32.599Z,1001.23
2019-06-01T14:35:35.739Z,1001.20
2019-06-01T14:36:32.706Z,1001.20
2019-06-01T14:37:32.766Z,1001.22
2019-06-01T14:38:46.626Z,1001.20
2019-06-01T14:39:32.866Z,1001.19
2019-06-01T14:40:32.922Z,1001.24
2019-06-01T14:41:32.973Z,1001.24
2019-06-01T14:42:33.029Z,1001.19
2019-06-01T14:43:33.082Z,1001.15
2019-06-01T14:44:33.134Z,1001.16
2019-06-01T14:45:33.253Z,1001.13
2019-06-01T14:46:33.240Z,1001.17
2019-06-01T14:47:33.293Z,1001.21
2019-06-01T14:48:33.357Z,1001.17
2019-06-01T14:51:37.542Z,1001.06
2019-06-01T14:52:35.320Z,1001.07
2019-06-01T14:54:33.662Z,1001.08
2019-06-01T14:55:33.918Z,1001.13
2019-06-01T14:56:33.767Z,1001.11
2019-06-01T14:57:33.821Z,1001.09
2019-06-01T14:58:33.873Z,1001.04
2019-06-01T14:59:33.929Z,1001.02
2019-06-01T15:00:33.981Z,1001.05
2019-06-01T15:01:34.034Z,1001.05
2019-06-01T15:02:34.092Z,1001.09
2019-06-01T15:03:34.139Z,1001.02
2019-06-01T15:04:34.192Z,1000.96
2019-06-01T15:05:34.246Z,1000.95
2019-06-01T15:06:34.296Z,1000.90
2019-06-01T15:07:34.678Z,1000.82
2019-06-01T15:08:34.406Z,1000.72
2019-06-01T15:09:34.454Z,1000.72
2019-06-01T15:10:34.507Z,1000.70
2019-06-01T15:11:34.560Z,1000.90
2019-06-01T15:12:34.612Z,1000.91
2019-06-01T15:13:34.664Z,1000.97
2019-06-01T15:14:34.718Z,1000.97
2019-06-01T15:15:34.779Z,1000.92
2019-06-01T15:16:34.821Z,1000.93
2019-06-01T15:17:34.880Z,1000.87
2019-06-01T15:18:34.927Z,1000.97
2019-06-01T15:19:34.979Z,1000.95
2019-06-01T15:20:35.029Z,1000.95
2019-06-01T15:21:35.083Z,1000.93